createdAt,value
2023-03-16T00:01:07.219Z,101883.56
2023-03-16T00:03:36.541Z,101881.03
2023-03-16T00:06:05.207Z,101884.09
2023-03-16T00:08:33.204Z,101887.28
2023-03-16T00:11:02.764Z,101888.28
2023-03-16T00:13:31.396Z,101888.44
2023-03-16T00:16:00.822Z,101891.31
2023-03-16T00:18:30.002Z,101892.47
2023-03-16T00:20:59.247Z,101889.00
2023-03-16T00:23:28.324Z,101893.00
2023-03-16T00:25:57.027Z,101893.69
2023-03-16T00:28:27.342Z,101890.41
2023-03-16T00:30:58.918Z,101891.38
2023-03-16T00:33:27.233Z,101895.03
2023-03-16T00:36:02.598Z,101890.75
2023-03-16T00:38:31.938Z,101888.34
2023-03-16T00:40:59.863Z,101887.53
2023-03-16T00:43:29.148Z,101879.53
2023-03-16T00:46:06.616Z,101889.06
2023-03-16T00:48:35.642Z,101886.38
2023-03-16T00:51:04.416Z,101889.06
2023-03-16T00:53:33.122Z,101888.94
2023-03-16T00:56:04.375Z,101889.44
2023-03-16T00:58:35.840Z,101879.09
2023-03-16T01:01:04.144Z,101888.38
2023-03-16T01:03:32.155Z,101895.19
2023-03-16T01:06:04.638Z,101885.97
2023-03-16T01:08:33.159Z,101882.97
2023-03-16T01:11:04.551Z,101885.19
2023-03-16T01:13:34.076Z,101873.34
2023-03-16T01:16:02.982Z,101879.44
2023-03-16T01:18:34.238Z,101874.94
2023-03-16T01:21:03.743Z,101878.88
2023-03-16T01:23:32.186Z,101875.91
2023-03-16T01:26:00.705Z,101880.09
2023-03-16T01:28:30.459Z,101875.88
2023-03-16T01:31:04.093Z,101881.06
2023-03-16T01:33:32.469Z,101873.84
2023-03-16T01:36:02.827Z,101870.44
2023-03-16T01:38:31.112Z,101880.06
2023-03-16T01:40:59.206Z,101871.34
2023-03-16T01:43:29.050Z,101874.34
2023-03-16T01:46:21.510Z,101880.91
2023-03-16T01:49:03.376Z,101876.78
2023-03-16T01:51:34.323Z,101871.28
2023-03-16T01:54:05.875Z,101868.63
2023-03-16T01:56:37.821Z,101880.56
2023-03-16T01:59:09.833Z,101880.41
2023-03-16T02:01:39.340Z,101872.69
2023-03-16T02:04:16.210Z,101862.41
2023-03-16T02:06:44.632Z,101871.25
2023-03-16T02:09:12.834Z,101863.31
2023-03-16T02:11:41.633Z,101872.41
2023-03-16T02:14:11.811Z,101869.75
2023-03-16T02:16:42.088Z,101862.94
2023-03-16T02:19:13.863Z,101852.63
2023-03-16T02:21:48.865Z,101852.00
2023-03-16T02:24:16.830Z,101850.09
2023-03-16T02:26:49.538Z,101845.88
2023-03-16T02:29:29.722Z,101847.50
2023-03-16T02:31:59.978Z,101841.75
2023-03-16T02:34:28.481Z,101842.81
2023-03-16T02:36:57.256Z,101859.38
2023-03-16T02:39:25.269Z,101849.19
2023-03-16T02:41:53.740Z,101851.38
2023-03-16T02:44:24.302Z,101851.03
2023-03-16T02:46:53.801Z,101852.41
2023-03-16T02:49:26.429Z,101846.00
2023-03-16T02:51:54.574Z,101851.25
2023-03-16T02:54:22.504Z,101842.22
2023-03-16T02:56:50.409Z,101842.09
2023-03-16T02:59:18.862Z,101844.78
2023-03-16T03:01:46.787Z,101840.25
2023-03-16T03:04:14.980Z,101845.47
2023-03-16T03:06:44.331Z,101846.94
2023-03-16T03:09:12.598Z,101857.53
2023-03-16T03:11:40.652Z,101862.06
2023-03-16T03:14:08.695Z,101856.34
2023-03-16T03:16:36.656Z,101848.69
2023-03-16T03:19:04.638Z,101845.88
2023-03-16T03:21:32.582Z,101846.44
2023-03-16T03:24:02.633Z,101847.28
2023-03-16T03:26:30.563Z,101849.00
2023-03-16T03:28:58.557Z,101849.56
2023-03-16T03:31:26.482Z,101853.41
2023-03-16T03:33:54.737Z,101847.69
2023-03-16T03:36:23.152Z,101844.38
2023-03-16T03:38:51.068Z,101842.16
2023-03-16T03:41:22.454Z,101839.34
2023-03-16T03:43:50.428Z,101841.41
2023-03-16T03:46:18.451Z,101840.03
2023-03-16T03:48:46.526Z,101841.34
2023-03-16T03:51:14.568Z,101836.75
2023-03-16T03:53:42.469Z,101834.28
2023-03-16T03:56:10.566Z,101835.94
2023-03-16T03:58:39.923Z,101834.59
2023-03-16T04:01:07.829Z,101829.88
2023-03-16T04:03:35.776Z,101827.13
2023-03-16T04:06:03.682Z,101819.59
2023-03-16T04:08:31.601Z,101821.31
2023-03-16T04:10:59.506Z,101820.03
2023-03-16T04:13:27.433Z,101817.25
2023-03-16T04:15:59.446Z,101816.16
2023-03-16T04:18:27.506Z,101810.63
2023-03-16T04:20:55.689Z,101809.81
2023-03-16T04:23:25.111Z,101804.41
2023-03-16T04:25:53.083Z,101806.31
2023-03-16T04:28:20.992Z,101808.94
2023-03-16T04:30:49.503Z,101807.88
2023-03-16T04:33:18.799Z,101792.84
2023-03-16T04:35:46.757Z,101795.28
2023-03-16T04:38:14.804Z,101799.09
2023-03-16T04:40:42.740Z,101785.84
2023-03-16T04:43:10.654Z,101788.44
2023-03-16T04:45:38.572Z,101783.97
2023-03-16T04:48:07.168Z,101792.63
2023-03-16T04:50:36.510Z,101781.38
2023-03-16T04:53:05.612Z,101770.66
2023-03-16T04:55:33.721Z,101769.53
2023-03-16T04:58:01.738Z,101769.41
2023-03-16T05:00:30.129Z,101759.38
2023-03-16T05:02:58.365Z,101755.00
2023-03-16T05:05:26.330Z,101748.72
2023-03-16T05:07:55.656Z,101743.25
2023-03-16T05:10:23.596Z,101746.84
2023-03-16T05:12:51.515Z,101746.53
2023-03-16T05:15:19.528Z,101747.19
2023-03-16T05:17:47.802Z,101748.13
2023-03-16T05:20:16.706Z,101739.16
2023-03-16T05:22:46.441Z,101747.00
2023-03-16T05:25:16.796Z,101746.91
2023-03-16T05:27:45.493Z,101746.75
2023-03-16T05:30:16.352Z,101752.91
2023-03-16T05:32:44.592Z,101743.91
2023-03-16T05:35:13.798Z,101744.66
2023-03-16T05:37:42.284Z,101747.13
2023-03-16T05:40:17.171Z,101754.22
2023-03-16T05:42:48.891Z,101749.78
2023-03-16T05:45:18.321Z,101753.25
2023-03-16T05:47:46.227Z,101756.13
2023-03-16T05:50:17.017Z,101748.09
2023-03-16T05:52:45.862Z,101745.66
2023-03-16T05:55:15.575Z,101747.84
2023-03-16T05:57:44.447Z,101746.53
2023-03-16T06:00:16.782Z,101748.47
2023-03-16T06:02:47.189Z,101749.53
2023-03-16T06:05:15.626Z,101752.91
2023-03-16T06:07:43.622Z,101757.19
2023-03-16T06:10:12.642Z,101762.97
2023-03-16T06:12:41.324Z,101757.22
2023-03-16T06:15:11.345Z,101754.34
2023-03-16T06:17:41.531Z,101750.81
2023-03-16T06:20:11.564Z,101757.75
2023-03-16T06:22:39.637Z,101759.13
2023-03-16T06:25:09.849Z,101764.56
2023-03-16T06:27:38.151Z,101762.88
2023-03-16T06:30:07.101Z,101766.66
2023-03-16T06:32:35.760Z,101771.63
2023-03-16T06:35:05.850Z,101771.38
2023-03-16T06:37:34.232Z,101770.78
2023-03-16T06:40:02.177Z,101766.72
2023-03-16T06:42:30.118Z,101770.91
2023-03-16T06:44:58.045Z,101776.03
2023-03-16T06:47:27.153Z,101769.38
2023-03-16T06:49:55.452Z,101777.09
2023-03-16T06:52:24.747Z,101772.56
2023-03-16T06:54:52.847Z,101774.69
2023-03-16T06:57:20.788Z,101781.22
2023-03-16T06:59:48.993Z,101786.34
2023-03-16T07:02:17.118Z,101787.00
2023-03-16T07:04:45.159Z,101794.16
2023-03-16T07:07:13.381Z,101798.53
2023-03-16T07:09:43.148Z,101797.19
2023-03-16T07:12:11.659Z,101798.75
2023-03-16T07:14:39.609Z,101803.16
2023-03-16T07:17:07.632Z,101805.09
2023-03-16T07:19:35.581Z,101801.88
2023-03-16T07:22:04.019Z,101798.41
2023-03-16T07:24:32.771Z,101802.75
2023-03-16T07:27:02.787Z,101800.78
2023-03-16T07:29:30.677Z,101798.78
2023-03-16T07:31:58.584Z,101793.25
2023-03-16T07:34:26.560Z,101799.31
2023-03-16T07:36:54.442Z,101786.63
2023-03-16T07:39:22.332Z,101794.47
2023-03-16T07:41:50.268Z,101789.00
2023-03-16T07:44:19.958Z,101794.66
2023-03-16T07:46:47.935Z,101783.44
2023-03-16T07:49:16.871Z,101789.97
2023-03-16T07:51:44.809Z,101793.06
2023-03-16T07:54:13.984Z,101788.19
2023-03-16T07:56:48.930Z,101792.00
2023-03-16T07:59:33.953Z,101784.31
2023-03-16T08:02:01.934Z,101788.44
2023-03-16T08:04:29.852Z,101777.16
2023-03-16T08:10:07.322Z,101772.38
2023-03-16T08:12:35.445Z,101768.88
2023-03-16T08:15:06.038Z,101767.09
2023-03-16T08:17:34.276Z,101769.75
2023-03-16T08:20:02.312Z,101763.22
2023-03-16T08:22:30.954Z,101754.94
2023-03-16T08:24:59.033Z,101762.44
2023-03-16T08:27:29.311Z,101758.97
2023-03-16T08:29:57.209Z,101760.00
2023-03-16T08:32:26.568Z,101753.97
2023-03-16T08:34:55.137Z,101747.09
2023-03-16T08:37:24.190Z,101756.56
2023-03-16T08:39:53.142Z,101758.25
2023-03-16T08:42:21.426Z,101758.59
2023-03-16T08:44:49.465Z,101753.59
2023-03-16T08:47:18.055Z,101752.69
2023-03-16T08:49:47.418Z,101741.63
2023-03-16T08:52:15.934Z,101745.03
2023-03-16T08:54:59.851Z,101733.59
2023-03-16T08:57:29.826Z,101741.19
2023-03-16T08:59:57.999Z,101737.88
2023-03-16T09:02:26.047Z,101731.22
2023-03-16T09:04:56.280Z,101733.53
2023-03-16T09:07:24.356Z,101736.28
2023-03-16T09:09:52.733Z,101727.81
2023-03-16T09:12:22.386Z,101728.72
2023-03-16T09:14:50.401Z,101728.84
2023-03-16T09:17:18.735Z,101720.94
2023-03-16T09:19:51.972Z,101721.50
2023-03-16T09:22:22.495Z,101726.22
2023-03-16T09:24:51.271Z,101721.19
2023-03-16T09:27:20.661Z,101718.78
2023-03-16T09:29:49.056Z,101720.06
2023-03-16T09:32:17.029Z,101717.59
2023-03-16T09:34:44.947Z,101725.16
2023-03-16T09:37:12.906Z,101717.41
2023-03-16T09:39:42.256Z,101709.44
2023-03-16T09:42:15.757Z,101714.41
2023-03-16T09:44:52.074Z,101711.38
2023-03-16T09:47:31.962Z,101711.09
2023-03-16T09:50:02.336Z,101724.63
2023-03-16T09:52:35.955Z,101719.69
2023-03-16T09:55:10.346Z,101716.31
2023-03-16T09:57:41.197Z,101713.25
2023-03-16T10:00:18.145Z,101704.13
2023-03-16T10:02:57.548Z,101711.69
2023-03-16T10:05:26.160Z,101716.47
2023-03-16T10:08:02.530Z,101711.16
2023-03-16T10:10:55.204Z,101711.53
2023-03-16T10:13:31.870Z,101707.63
2023-03-16T10:16:03.763Z,101700.78
2023-03-16T10:18:35.068Z,101700.88
2023-03-16T10:21:04.045Z,101695.66
2023-03-16T10:23:34.364Z,101692.09
2023-03-16T10:26:07.526Z,101690.34
2023-03-16T10:28:37.665Z,101685.06
2023-03-16T10:31:05.803Z,101688.81
2023-03-16T10:33:36.598Z,101699.53
2023-03-16T10:36:11.828Z,101697.66
2023-03-16T10:38:46.763Z,101685.00
2023-03-16T10:41:26.857Z,101694.75
2023-03-16T10:43:57.296Z,101677.34
2023-03-16T10:46:26.506Z,101681.00
2023-03-16T10:48:59.707Z,101676.94
2023-03-16T10:51:29.759Z,101663.56
2023-03-16T10:54:03.010Z,101667.50
2023-03-16T10:56:35.439Z,101660.16
2023-03-16T10:59:03.553Z,101662.78
2023-03-16T11:01:33.840Z,101661.66
2023-03-16T11:04:02.681Z,101653.34
2023-03-16T11:06:32.119Z,101655.94
2023-03-16T11:09:06.867Z,101656.63
2023-03-16T11:11:36.573Z,101660.84
2023-03-16T11:14:05.973Z,101650.47
2023-03-16T11:16:39.476Z,101647.84
2023-03-16T11:19:14.935Z,101648.56
2023-03-16T11:21:50.942Z,101653.31
2023-03-16T11:24:24.198Z,101653.59
2023-03-16T11:26:55.734Z,101643.13
2023-03-16T11:29:27.853Z,101634.44
2023-03-16T11:31:58.935Z,101630.25
2023-03-16T11:34:30.584Z,101635.19
2023-03-16T11:37:02.708Z,101638.09
2023-03-16T11:39:40.416Z,101622.16
2023-03-16T11:42:30.912Z,101614.66
2023-03-16T11:45:05.631Z,101614.31
2023-03-16T11:48:08.210Z,101610.44
2023-03-16T11:50:40.873Z,101606.19
2023-03-16T11:53:15.542Z,101600.56
2023-03-16T11:55:48.305Z,101608.06
2023-03-16T11:58:28.281Z,101600.84
2023-03-16T12:01:02.946Z,101588.28
2023-03-16T12:03:47.705Z,101598.78
2023-03-16T12:06:24.430Z,101596.31
2023-03-16T12:09:19.842Z,101590.38
2023-03-16T12:11:51.580Z,101585.81
2023-03-16T12:14:24.949Z,101599.25
2023-03-16T12:16:57.473Z,101580.72
2023-03-16T12:19:32.420Z,101577.38
2023-03-16T12:22:05.095Z,101571.22
2023-03-16T12:24:36.936Z,101572.09
2023-03-16T12:27:06.792Z,101558.34
2023-03-16T12:29:41.547Z,101561.34
2023-03-16T12:32:12.303Z,101555.06
2023-03-16T12:34:42.723Z,101559.22
2023-03-16T12:37:17.144Z,101544.81
2023-03-16T12:40:07.913Z,101538.56
2023-03-16T12:43:06.718Z,101530.44
2023-03-16T12:45:41.301Z,101543.19
2023-03-16T12:48:16.151Z,101547.19
2023-03-16T12:50:52.353Z,101538.66
2023-03-16T12:53:28.640Z,101532.25
2023-03-16T12:55:57.993Z,101525.78
2023-03-16T12:58:27.560Z,101511.81
2023-03-16T13:01:00.816Z,101512.78
2023-03-16T13:03:29.630Z,101504.16
2023-03-16T13:06:00.823Z,101497.88
2023-03-16T13:08:29.105Z,101498.38
2023-03-16T13:11:04.782Z,101497.03
2023-03-16T13:13:34.159Z,101495.63
2023-03-16T13:16:10.284Z,101492.69
2023-03-16T13:18:41.732Z,101501.44
2023-03-16T13:21:18.880Z,101496.56
2023-03-16T13:24:01.390Z,101499.69
2023-03-16T13:26:41.119Z,101494.81
2023-03-16T13:29:27.594Z,101480.91
2023-03-16T13:31:58.381Z,101481.41
2023-03-16T13:34:30.902Z,101481.72
2023-03-16T13:37:00.150Z,101484.00
2023-03-16T13:39:29.243Z,101489.41
2023-03-16T13:42:03.453Z,101482.91
2023-03-16T13:44:32.127Z,101482.47
2023-03-16T13:47:07.530Z,101484.88
2023-03-16T13:49:35.722Z,101485.06
2023-03-16T13:52:06.046Z,101482.25
2023-03-16T13:54:34.017Z,101477.41
2023-03-16T13:57:04.269Z,101471.03
2023-03-16T13:59:32.287Z,101470.59
2023-03-16T14:02:01.923Z,101475.50
2023-03-16T14:04:33.419Z,101477.22
2023-03-16T14:07:03.637Z,101474.09
2023-03-16T14:09:34.538Z,101463.56
2023-03-16T14:12:03.696Z,101455.41
2023-03-16T14:14:33.524Z,101448.16
2023-03-16T14:17:05.626Z,101444.16
2023-03-16T14:19:42.506Z,101432.78
2023-03-16T14:22:18.552Z,101429.88
2023-03-16T14:24:47.999Z,101413.09
2023-03-16T14:27:22.906Z,101414.16
2023-03-16T14:29:57.815Z,101406.56
2023-03-16T14:32:28.553Z,101410.06
2023-03-16T14:37:51.596Z,101395.03
2023-03-16T14:40:25.909Z,101401.66
2023-03-16T14:42:54.657Z,101395.59
2023-03-16T14:45:23.696Z,101401.34
2023-03-16T14:47:53.722Z,101388.94
2023-03-16T14:50:25.443Z,101387.69
2023-03-16T14:52:56.511Z,101381.50
2023-03-16T14:55:25.779Z,101387.19
2023-03-16T14:57:54.041Z,101382.75
2023-03-16T15:00:23.133Z,101373.88
2023-03-16T15:03:01.363Z,101368.03
2023-03-16T15:05:36.862Z,101360.47
2023-03-16T15:08:07.196Z,101353.69
2023-03-16T15:10:36.430Z,101358.97
2023-03-16T15:13:13.354Z,101364.06
2023-03-16T15:15:42.768Z,101358.88
2023-03-16T15:18:11.226Z,101357.16
2023-03-16T15:20:41.820Z,101370.13
2023-03-16T15:23:14.927Z,101352.31
2023-03-16T15:25:44.742Z,101341.50
2023-03-16T15:28:15.923Z,101339.09
2023-03-16T15:30:44.866Z,101351.53
2023-03-16T15:33:13.522Z,101339.22
2023-03-16T15:35:42.674Z,101342.66
2023-03-16T15:38:16.644Z,101349.81
2023-03-16T15:40:45.783Z,101336.53
2023-03-16T15:43:14.022Z,101332.00
2023-03-16T15:45:41.958Z,101324.19
2023-03-16T15:48:11.107Z,101329.59
2023-03-16T15:50:40.893Z,101321.41
2023-03-16T15:53:15.361Z,101315.69
2023-03-16T15:55:56.511Z,101315.56
2023-03-16T15:58:27.653Z,101319.34
2023-03-16T16:00:57.278Z,101319.34
2023-03-16T16:03:26.108Z,101326.69
2023-03-16T16:05:54.804Z,101322.03
2023-03-16T16:08:22.719Z,101316.75
2023-03-16T16:10:53.246Z,101326.03
2023-03-16T16:13:34.129Z,101325.06
2023-03-16T16:16:11.006Z,101317.94
2023-03-16T16:18:39.729Z,101319.34
2023-03-16T16:21:09.639Z,101315.69
2023-03-16T16:23:37.658Z,101318.25
2023-03-16T16:26:09.480Z,101301.19
2023-03-16T16:28:39.013Z,101299.03
2023-03-16T16:31:13.332Z,101306.94
2023-03-16T16:33:41.730Z,101290.63
2023-03-16T16:36:15.097Z,101286.94
2023-03-16T16:39:06.147Z,101281.34
2023-03-16T16:41:35.711Z,101280.28
2023-03-16T16:44:08.431Z,101287.66
2023-03-16T16:46:40.199Z,101284.34
2023-03-16T16:49:14.925Z,101282.53
2023-03-16T16:51:43.441Z,101283.06
2023-03-16T16:54:21.366Z,101282.03
2023-03-16T16:56:50.724Z,101266.38
2023-03-16T16:59:21.974Z,101272.22
2023-03-16T17:01:51.881Z,101272.56
2023-03-16T17:04:23.194Z,101274.47
2023-03-16T17:06:55.325Z,101276.53
2023-03-16T17:09:23.473Z,101280.31
2023-03-16T17:11:51.511Z,101280.41
2023-03-16T17:14:22.368Z,101282.53
2023-03-16T17:16:51.916Z,101287.53
2023-03-16T17:19:23.357Z,101285.91
2023-03-16T17:21:51.477Z,101290.63
2023-03-16T17:24:19.468Z,101289.41
2023-03-16T17:26:49.356Z,101275.63
2023-03-16T17:29:22.579Z,101271.97
2023-03-16T17:31:51.239Z,101278.34
2023-03-16T17:34:20.949Z,101282.41
2023-03-16T17:36:49.547Z,101275.94
2023-03-16T17:39:18.805Z,101276.88
2023-03-16T17:41:47.633Z,101279.69
2023-03-16T17:44:16.242Z,101269.63
2023-03-16T17:46:46.350Z,101271.50
2023-03-16T17:49:14.678Z,101262.00
2023-03-16T17:51:44.062Z,101258.50
2023-03-16T17:54:12.004Z,101263.91
2023-03-16T17:56:40.418Z,101256.03
2023-03-16T17:59:12.484Z,101248.41
2023-03-16T18:01:40.597Z,101246.97
2023-03-16T18:04:17.228Z,101248.78
2023-03-16T18:06:47.124Z,101244.13
2023-03-16T18:09:15.942Z,101233.47
2023-03-16T18:11:46.663Z,101229.69
2023-03-16T18:14:22.422Z,101228.31
2023-03-16T18:16:50.354Z,101222.28
2023-03-16T18:19:25.290Z,101229.28
2023-03-16T18:21:53.687Z,101234.72
2023-03-16T18:24:25.680Z,101232.88
2023-03-16T18:26:53.823Z,101234.69
2023-03-16T18:29:22.437Z,101232.00
2023-03-16T18:31:51.852Z,101231.16
2023-03-16T18:34:23.793Z,101221.09
2023-03-16T18:36:53.252Z,101228.28
2023-03-16T18:39:22.639Z,101216.06
2023-03-16T18:41:51.105Z,101226.25
2023-03-16T18:44:20.638Z,101213.56
2023-03-16T18:46:49.495Z,101216.78
2023-03-16T18:49:22.809Z,101222.88
2023-03-16T18:51:52.380Z,101219.75
2023-03-16T18:54:22.506Z,101219.59
2023-03-16T18:56:50.824Z,101225.69
2023-03-16T18:59:18.991Z,101217.28
2023-03-16T19:01:47.343Z,101211.06
2023-03-16T19:04:22.876Z,101206.69
2023-03-16T19:06:52.083Z,101197.78
2023-03-16T19:09:21.832Z,101200.34
2023-03-16T19:11:50.709Z,101195.31
2023-03-16T19:14:20.597Z,101197.13
2023-03-16T19:16:48.576Z,101204.53
2023-03-16T19:19:17.133Z,101197.53
2023-03-16T19:21:46.457Z,101200.94
2023-03-16T19:24:21.994Z,101201.72
2023-03-16T19:26:49.957Z,101201.03
2023-03-16T19:29:19.427Z,101190.84
2023-03-16T19:31:47.411Z,101188.09
2023-03-16T19:34:17.745Z,101191.66
2023-03-16T19:36:47.073Z,101192.78
2023-03-16T19:39:16.217Z,101181.53
2023-03-16T19:41:46.099Z,101176.81
2023-03-16T19:44:16.904Z,101175.97
2023-03-16T19:46:45.562Z,101178.47
2023-03-16T19:49:17.020Z,101170.34
2023-03-16T19:51:46.697Z,101170.66
2023-03-16T19:54:22.657Z,101169.03
2023-03-16T19:56:50.836Z,101168.81
2023-03-16T19:59:18.981Z,101165.16
2023-03-16T20:01:47.177Z,101155.03
2023-03-16T20:04:16.654Z,101163.53
2023-03-16T20:06:47.583Z,101156.72
2023-03-16T20:09:17.086Z,101150.19
2023-03-16T20:11:45.640Z,101148.66
2023-03-16T20:14:19.786Z,101148.66
2023-03-16T20:16:48.239Z,101152.72
2023-03-16T20:19:16.872Z,101146.28
2023-03-16T20:21:46.171Z,101140.38
2023-03-16T20:24:16.465Z,101136.75
2023-03-16T20:26:46.448Z,101135.38
2023-03-16T20:29:36.347Z,101128.22
2023-03-16T20:32:20.544Z,101122.06
2023-03-16T20:38:03.611Z,101123.75
2023-03-16T20:40:31.827Z,101117.81
2023-03-16T20:42:59.914Z,101127.00
2023-03-16T20:45:30.734Z,101123.94
2023-03-16T20:47:58.809Z,101128.66
2023-03-16T20:50:29.220Z,101126.16
2023-03-16T20:52:58.677Z,101105.91
2023-03-16T20:55:29.118Z,101106.13
2023-03-16T20:57:57.640Z,101111.78
2023-03-16T21:00:29.269Z,101106.13
2023-03-16T21:02:57.301Z,101097.06
2023-03-16T21:05:25.656Z,101086.97
2023-03-16T21:07:54.529Z,101089.31
2023-03-16T21:10:25.692Z,101083.06
2023-03-16T21:12:55.628Z,101088.69
2023-03-16T21:15:26.527Z,101074.91
2023-03-16T21:17:59.671Z,101087.66
2023-03-16T21:20:29.473Z,101070.88
2023-03-16T21:22:57.884Z,101072.91
2023-03-16T21:25:30.969Z,101074.91
2023-03-16T21:28:02.295Z,101074.91
2023-03-16T21:30:31.942Z,101070.91
2023-03-16T21:33:01.897Z,101069.25
2023-03-16T21:35:33.967Z,101066.84
2023-03-16T21:38:02.515Z,101060.63
2023-03-16T21:40:32.742Z,101056.63
2023-03-16T21:43:00.726Z,101051.34
2023-03-16T21:45:29.208Z,101062.97
2023-03-16T21:47:58.226Z,101061.22
2023-03-16T21:50:30.085Z,101046.25
2023-03-16T21:52:58.266Z,101042.81
2023-03-16T21:55:29.281Z,101037.31
2023-03-16T21:58:00.006Z,101037.56
2023-03-16T22:00:30.090Z,101047.06
2023-03-16T22:02:59.925Z,101039.34
2023-03-16T22:05:37.663Z,101047.06
2023-03-16T22:08:14.109Z,101042.19
2023-03-16T22:10:43.100Z,101041.28
2023-03-16T22:13:12.531Z,101043.22
2023-03-16T22:15:42.567Z,101034.97
2023-03-16T22:18:28.310Z,101034.19
2023-03-16T22:20:56.961Z,101023.56
2023-03-16T22:23:30.006Z,101023.16
2023-03-16T22:25:58.011Z,101018.28
2023-03-16T22:28:27.818Z,101016.66
2023-03-16T22:30:57.576Z,101025.75
2023-03-16T22:33:29.904Z,101016.50
2023-03-16T22:36:00.352Z,101026.00
2023-03-16T22:38:28.353Z,101029.75
2023-03-16T22:40:56.249Z,101028.50
2023-03-16T22:43:29.948Z,101025.69
2023-03-16T22:45:57.909Z,101015.25
2023-03-16T22:48:27.713Z,101011.88
2023-03-16T22:50:56.087Z,101004.81
2023-03-16T22:53:29.065Z,100995.81
2023-03-16T22:55:57.749Z,100996.31
2023-03-16T22:58:31.080Z,100998.13
2023-03-16T23:01:00.196Z,100988.44
2023-03-16T23:03:28.293Z,100985.63
2023-03-16T23:05:56.636Z,100992.56
2023-03-16T23:08:26.613Z,100979.88
2023-03-16T23:10:55.232Z,100984.63
2023-03-16T23:13:25.437Z,100977.50
2023-03-16T23:15:56.838Z,100986.44
2023-03-16T23:18:26.829Z,100989.03
2023-03-16T23:20:54.749Z,100977.75
2023-03-16T23:23:22.704Z,100977.06
2023-03-16T23:25:50.614Z,100983.66
2023-03-16T23:28:20.380Z,100976.56
2023-03-16T23:30:48.596Z,100981.38
2023-03-16T23:33:17.912Z,100978.75
2023-03-16T23:35:46.856Z,100976.66
2023-03-16T23:38:15.003Z,100970.72
2023-03-16T23:40:42.933Z,100974.47
2023-03-16T23:43:10.816Z,100964.56
2023-03-16T23:45:40.398Z,100964.66
2023-03-16T23:48:12.461Z,100963.41
2023-03-16T23:50:42.688Z,100956.34
2023-03-16T23:53:15.175Z,100960.25
2023-03-16T23:55:43.627Z,100970.91
2023-03-16T23:58:12.082Z,100958.53
